Time;durP1;ratioP1;P1;durP2;ratioP2;P2;SDS_P1;SDS_P2;PMS_P1;PMS_P2;Temp;Humidity;BMP_temperature;BMP_pressure;BME280_temperature;BME280_humidity;BME280_pressure;Samples;Min_cycle;Max_cycle;Signal;HPM_P1;HPM_P2
2021/07/25 00:03:22;;;;;;;2.15;1.20;;;25.90;29.60;;;;;;20736558;28;80752;-69
2021/07/25 00:13:24;;;;;;;3.03;0.95;;;25.50;30.40;;;;;;20730453;28;81054;-70
2021/07/25 00:23:28;;;;;;;4.35;1.52;;;25.40;30.30;;;;;;20737148;28;81847;-70
2021/07/25 00:33:32;;;;;;;1.98;0.90;;;25.20;30.90;;;;;;20729202;28;80876;-70
2021/07/25 00:43:34;;;;;;;2.17;1.00;;;25.00;31.60;;;;;;20714177;28;80182;-69
2021/07/25 00:53:42;;;;;;;1.77;0.90;;;24.90;32.10;;;;;;20728963;28;81280;-69
2021/07/25 01:04:19;;;;;;;2.95;0.95;;;24.80;32.30;;;;;;20714704;28;80269;-70
2021/07/25 01:14:32;;;;;;;2.20;0.80;;;24.70;32.70;;;;;;20711094;28;80685;-69
2021/07/25 01:24:35;;;;;;;2.95;1.00;;;24.70;32.80;;;;;;20726599;28;80771;-69
2021/07/25 01:34:43;;;;;;;3.90;1.30;;;24.50;33.40;;;;;;20766477;28;80887;-69
2021/07/25 01:44:47;;;;;;;1.63;0.80;;;24.40;34.00;;;;;;20749547;28;80781;-70
2021/07/25 01:54:51;;;;;;;1.90;0.80;;;24.20;34.10;;;;;;20723100;28;80921;-70
2021/07/25 02:04:54;;;;;;;3.95;1.02;;;24.00;35.10;;;;;;20715640;28;80447;-69
2021/07/25 02:14:59;;;;;;;2.35;1.00;;;23.90;35.80;;;;;;20732930;28;81352;-69
2021/07/25 02:25:03;;;;;;;2.92;0.95;;;23.70;36.60;;;;;;20732285;28;80700;-69
2021/07/25 02:35:06;;;;;;;3.38;1.00;;;23.60;37.30;;;;;;20714440;28;80725;-70
2021/07/25 02:45:11;;;;;;;2.45;1.00;;;23.40;37.90;;;;;;20711073;28;80598;-69
2021/07/25 02:55:14;;;;;;;3.20;1.75;;;23.40;38.60;;;;;;20712812;28;80847;-69
2021/07/25 03:05:17;;;;;;;1.50;0.80;;;23.30;38.70;;;;;;20724319;28;80143;-69
2021/07/25 03:15:21;;;;;;;1.50;0.77;;;23.30;39.00;;;;;;20722494;28;81300;-70
2021/07/25 03:25:25;;;;;;;1.90;0.88;;;23.40;39.20;;;;;;20711036;28;80691;-68
2021/07/25 03:35:29;;;;;;;3.17;1.00;;;23.40;39.10;;;;;;20774315;28;80741;-69
2021/07/25 03:45:36;;;;;;;2.35;0.98;;;23.40;39.60;;;;;;20706898;28;80447;-68
2021/07/25 03:55:47;;;;;;;2.70;1.65;;;23.20;40.10;;;;;;20725304;28;81132;-69
2021/07/25 04:06:04;;;;;;;3.97;0.93;;;23.10;40.40;;;;;;20710455;28;80881;-69
2021/07/25 04:16:17;;;;;;;3.90;1.20;;;23.00;40.80;;;;;;20725388;28;80106;-69
2021/07/25 04:26:31;;;;;;;5.22;1.42;;;22.80;41.70;;;;;;20757190;28;80190;-70
2021/07/25 04:36:44;;;;;;;3.92;1.25;;;22.70;42.90;;;;;;20778651;28;80470;-69
2021/07/25 04:47:04;;;;;;;2.95;1.40;;;22.50;42.80;;;;;;20743166;28;80743;-68
2021/07/25 04:57:27;;;;;;;3.65;1.35;;;22.50;42.70;;;;;;20749327;28;81096;-69
2021/07/25 05:07:41;;;;;;;5.25;1.85;;;22.40;43.00;;;;;;20751031;28;80668;-68
2021/07/25 05:18:01;;;;;;;5.88;1.35;;;22.30;43.30;;;;;;20728126;28;80962;-69
2021/07/25 05:28:06;;;;;;;3.70;1.75;;;22.20;43.50;;;;;;20738006;28;80674;-68
2021/07/25 05:38:14;;;;;;;9.68;1.85;;;22.20;42.20;;;;;;20725314;28;80729;-70
2021/07/25 05:48:17;;;;;;;6.55;2.00;;;22.20;41.80;;;;;;20713523;28;81606;-71
2021/07/25 05:58:21;;;;;;;6.60;1.85;;;22.00;41.30;;;;;;20736898;28;80482;-72
2021/07/25 06:08:23;;;;;;;;;;;21.90;41.30;;;;;;20726822;28;80673;-72
2021/07/25 06:18:27;;;;;;;8.30;2.22;;;21.90;42.00;;;;;;20758639;28;80454;-72
2021/07/25 06:28:32;;;;;;;5.15;2.92;;;21.80;42.10;;;;;;20735878;28;80548;-73
2021/07/25 06:38:36;;;;;;;4.43;1.60;;;21.80;42.20;;;;;;20744241;28;81637;-71
2021/07/25 06:48:40;;;;;;;3.90;1.88;;;21.90;41.50;;;;;;20740471;28;81275;-72
2021/07/25 06:58:42;;;;;;;4.90;1.57;;;22.20;41.00;;;;;;20731043;28;81156;-72
2021/07/25 07:08:45;;;;;;;3.90;1.95;;;22.40;41.30;;;;;;20743200;28;80920;-75
2021/07/25 07:18:50;;;;;;;2.83;1.77;;;22.30;41.10;;;;;;20723574;28;81822;-72
2021/07/25 07:28:52;;;;;;;7.93;1.90;;;22.50;41.10;;;;;;20735125;28;80752;-70
2021/07/25 07:38:57;;;;;;;13.18;5.78;;;22.90;40.10;;;;;;20729025;27;80979;-72
2021/07/25 07:49:00;;;;;;;5.90;1.70;;;23.30;39.70;;;;;;20736275;28;81891;-72
2021/07/25 07:59:03;;;;;;;3.85;1.92;;;23.10;40.80;;;;;;20727163;28;80471;-72
2021/07/25 08:09:06;;;;;;;9.07;2.08;;;23.50;39.50;;;;;;20705832;28;80931;-71
2021/07/25 08:19:10;;;;;;;4.00;1.83;;;23.90;39.30;;;;;;20729191;28;81865;-71
2021/07/25 08:29:12;;;;;;;2.63;1.20;;;23.90;38.20;;;;;;20727671;28;81549;-69
2021/07/25 08:39:15;;;;;;;5.50;1.80;;;24.10;37.10;;;;;;20711629;28;81390;-70
2021/07/25 08:49:20;;;;;;;30.33;17.92;;;24.40;36.50;;;;;;20742376;28;82995;-70
2021/07/25 08:59:28;;;;;;;3.92;1.77;;;24.60;36.70;;;;;;20721684;28;83162;-69
2021/07/25 09:09:31;;;;;;;2.97;1.75;;;25.30;34.90;;;;;;20726215;28;83249;-72
2021/07/25 09:19:35;;;;;;;4.47;2.03;;;25.40;34.60;;;;;;20748602;28;80686;-69
2021/07/25 09:29:39;;;;;;;4.55;1.70;;;25.60;34.60;;;;;;20748655;28;80749;-70
2021/07/25 09:39:42;;;;;;;;;;;25.90;34.60;;;;;;20724421;28;81885;-68
2021/07/25 09:49:47;;;;;;;10.50;4.90;;;26.40;33.20;;;;;;20765739;28;81030;-68
2021/07/25 09:59:57;;;;;;;4.28;1.83;;;26.90;32.70;;;;;;20748173;28;81710;-70
2021/07/25 10:10:02;;;;;;;8.80;2.38;;;27.30;31.70;;;;;;20737438;28;80554;-68
2021/07/25 10:20:11;;;;;;;6.45;1.80;;;27.70;31.20;;;;;;20730005;28;80730;-69
2021/07/25 10:30:14;;;;;;;7.10;1.80;;;28.10;31.20;;;;;;20722842;28;82328;-67
2021/07/25 10:40:21;;;;;;;5.72;2.15;;;28.80;30.60;;;;;;20711718;28;81894;-70
2021/07/25 10:50:25;;;;;;;9.90;3.10;;;29.30;29.30;;;;;;20709009;28;80969;-71
2021/07/25 11:00:38;;;;;;;6.63;2.45;;;30.50;29.40;;;;;;20715596;28;80718;-70
2021/07/25 11:10:40;;;;;;;4.65;2.80;;;33.20;26.50;;;;;;20720241;28;80586;-72
2021/07/25 11:21:04;;;;;;;10.55;2.50;;;34.20;25.00;;;;;;20719870;28;80831;-74
2021/07/25 11:31:13;;;;;;;3.83;2.13;;;36.00;23.50;;;;;;20741956;28;81125;-72
2021/07/25 11:41:27;;;;;;;4.32;2.38;;;37.50;20.30;;;;;;20732522;28;80329;-71
2021/07/25 11:51:32;;;;;;;2.55;1.52;;;39.70;19.10;;;;;;20728571;28;81030;-72
2021/07/25 12:01:37;;;;;;;5.22;1.65;;;40.70;17.60;;;;;;20743936;28;80687;-69
2021/07/25 12:11:40;;;;;;;5.70;2.28;;;41.00;18.10;;;;;;20744239;28;81147;-70
2021/07/25 12:21:43;;;;;;;5.18;1.90;;;41.10;17.60;;;;;;20766090;28;80461;-70
2021/07/25 12:31:45;;;;;;;2.17;1.98;;;41.70;17.30;;;;;;20756929;28;80144;-70
2021/07/25 12:41:48;;;;;;;5.65;1.98;;;44.70;15.30;;;;;;20784522;28;80619;-70
2021/07/25 12:51:50;;;;;;;3.45;2.70;;;44.50;15.20;;;;;;20722686;28;80664;-69
2021/07/25 13:12:14;;;;;;;9.68;4.10;;;43.70;16.00;;;;;;20774475;28;80670;-71
2021/07/25 13:22:19;;;;;;;26.58;6.63;;;43.90;15.90;;;;;;20755115;28;80826;-71
2021/07/25 13:32:22;;;;;;;15.18;4.55;;;44.80;17.00;;;;;;20740124;28;81606;-70
2021/07/25 13:42:25;;;;;;;14.25;4.85;;;44.70;17.30;;;;;;20735279;28;81110;-71
2021/07/25 13:52:28;;;;;;;13.63;8.15;;;43.70;17.30;;;;;;20725889;28;80692;-71
2021/07/25 14:02:31;;;;;;;26.35;6.78;;;38.50;19.10;;;;;;20724462;28;80482;-69
2021/07/25 14:12:34;;;;;;;17.70;5.75;;;35.20;23.70;;;;;;20740797;28;80781;-71
2021/07/25 14:22:37;;;;;;;13.25;3.88;;;34.00;24.00;;;;;;20743235;28;81142;-71
2021/07/25 14:32:40;;;;;;;8.07;3.70;;;33.70;23.80;;;;;;20729214;28;80705;-72
2021/07/25 14:42:44;;;;;;;7.55;4.90;;;33.80;22.70;;;;;;20732917;28;80893;-70
2021/07/25 14:52:47;;;;;;;7.43;3.58;;;33.70;22.80;;;;;;20760296;28;81126;-68
2021/07/25 15:02:49;;;;;;;3.67;2.90;;;33.50;22.40;;;;;;20742120;28;80583;-68
2021/07/25 15:12:51;;;;;;;5.43;3.08;;;33.30;22.40;;;;;;20747329;28;81178;-67
2021/07/25 15:22:58;;;;;;;8.18;6.53;;;33.10;21.00;;;;;;20744132;28;80662;-68
2021/07/25 15:32:59;;;;;;;6.38;4.55;;;32.90;21.80;;;;;;20741620;28;82733;-67
2021/07/25 15:43:01;;;;;;;5.03;4.03;;;32.70;21.70;;;;;;20754896;28;81001;-67
2021/07/25 15:53:04;;;;;;;4.00;2.80;;;32.40;21.60;;;;;;20738803;28;82427;-68
2021/07/25 16:03:06;;;;;;;5.30;2.92;;;32.30;20.60;;;;;;20740100;28;80692;-69
2021/07/25 16:13:10;;;;;;;3.55;2.33;;;32.20;21.00;;;;;;20744202;28;81363;-68
2021/07/25 16:23:12;;;;;;;4.05;2.80;;;32.10;21.50;;;;;;20745053;28;80863;-68
2021/07/25 16:33:15;;;;;;;3.40;2.20;;;31.90;21.60;;;;;;20736892;28;80827;-68
2021/07/25 16:43:19;;;;;;;5.63;2.10;;;31.80;22.80;;;;;;20742063;28;81010;-67
2021/07/25 16:53:22;;;;;;;4.53;2.40;;;31.60;23.10;;;;;;20746114;28;80694;-68
2021/07/25 17:03:23;;;;;;;5.13;2.17;;;31.70;22.60;;;;;;20746908;28;80739;-68
2021/07/25 17:13:25;;;;;;;4.72;2.10;;;31.80;22.90;;;;;;20729094;28;81255;-68
2021/07/25 17:23:27;;;;;;;4.03;1.95;;;31.90;22.30;;;;;;20715022;28;80664;-68
2021/07/25 17:33:29;;;;;;;2.53;1.90;;;31.90;22.40;;;;;;20727104;28;80429;-67
2021/07/25 17:43:31;;;;;;;7.05;2.75;;;31.60;22.70;;;;;;20725672;28;80043;-70
2021/07/25 17:53:34;;;;;;;5.75;2.70;;;31.30;23.10;;;;;;20776821;28;81679;-70
2021/07/25 18:03:37;;;;;;;9.38;3.95;;;31.10;24.60;;;;;;20756964;28;81700;-70
2021/07/25 18:13:41;;;;;;;8.98;4.38;;;30.90;24.40;;;;;;20772248;28;80558;-68
2021/07/25 18:23:44;;;;;;;12.52;3.53;;;30.70;24.70;;;;;;20719322;28;80580;-67
2021/07/25 18:33:46;;;;;;;27.48;6.85;;;30.50;24.60;;;;;;20722975;28;80639;-67
2021/07/25 18:43:48;;;;;;;9.75;3.45;;;30.30;26.50;;;;;;20710310;28;81003;-66
2021/07/25 18:53:50;;;;;;;15.93;5.75;;;30.30;26.40;;;;;;20713967;28;80885;-66
2021/07/25 19:03:52;;;;;;;9.35;3.35;;;30.10;26.00;;;;;;20712533;28;81585;-65
2021/07/25 19:13:54;;;;;;;5.72;2.75;;;29.90;27.00;;;;;;20709068;28;80338;-65
2021/07/25 19:23:56;;;;;;;6.72;2.50;;;29.70;27.20;;;;;;20709846;28;80804;-69
2021/07/25 19:33:58;;;;;;;5.28;2.20;;;29.50;27.10;;;;;;20768820;28;80340;-66
2021/07/25 19:44:01;;;;;;;4.95;2.45;;;29.40;27.60;;;;;;20789302;28;80588;-66
2021/07/25 19:54:03;;;;;;;3.28;1.98;;;29.30;28.00;;;;;;20788906;28;81230;-66
2021/07/25 20:04:05;;;;;;;4.90;2.50;;;29.00;27.60;;;;;;20789167;28;80730;-66
2021/07/25 20:14:08;;;;;;;3.63;1.98;;;28.90;28.40;;;;;;20786787;28;80531;-66
2021/07/25 20:24:09;;;;;;;3.47;1.80;;;28.80;28.10;;;;;;20783438;28;81788;-66
2021/07/25 20:34:11;;;;;;;6.80;1.95;;;28.60;28.80;;;;;;20785953;28;80659;-67
2021/07/25 20:44:13;;;;;;;5.70;2.28;;;28.50;28.90;;;;;;20788279;28;80590;-66
2021/07/25 20:54:16;;;;;;;3.17;1.67;;;28.40;29.50;;;;;;20786008;28;80611;-66
2021/07/25 21:04:18;;;;;;;7.60;1.83;;;28.30;30.30;;;;;;20783746;28;81054;-67
2021/07/25 21:14:20;;;;;;;4.13;2.13;;;28.00;31.90;;;;;;20801044;28;81281;-66
2021/07/25 21:24:22;;;;;;;6.85;1.50;;;27.80;33.30;;;;;;20767640;28;80705;-67
2021/07/25 21:34:25;;;;;;;6.05;1.52;;;27.30;37.10;;;;;;20736807;28;82757;-66
2021/07/25 21:44:27;;;;;;;81.35;56.45;;;26.60;43.00;;;;;;20735002;28;80926;-70
2021/07/25 21:54:29;;;;;;;4.10;1.65;;;26.00;48.40;;;;;;20735557;28;84976;-68
2021/07/25 22:04:41;;;;;;;5.40;1.42;;;25.50;51.90;;;;;;20736990;28;83378;-69
2021/07/25 22:14:43;;;;;;;3.15;0.98;;;25.10;54.40;;;;;;20749661;28;81494;-69
2021/07/25 22:24:45;;;;;;;5.07;1.73;;;24.70;55.40;;;;;;20743773;28;81093;-67
2021/07/25 22:34:47;;;;;;;4.97;1.55;;;23.90;59.40;;;;;;20735032;28;80906;-70
2021/07/25 22:44:48;;;;;;;3.53;1.65;;;23.40;63.20;;;;;;20740175;28;81282;-70
2021/07/25 22:54:51;;;;;;;4.30;1.70;;;23.00;65.20;;;;;;20768004;28;81031;-68
2021/07/25 23:04:52;;;;;;;5.30;1.33;;;22.90;66.40;;;;;;20750692;28;81344;-67
2021/07/25 23:14:54;;;;;;;2.50;1.17;;;22.70;67.60;;;;;;20752501;28;81749;-70
2021/07/25 23:24:56;;;;;;;3.95;1.65;;;22.50;68.20;;;;;;20739566;28;81927;-68
2021/07/25 23:34:58;;;;;;;15.07;9.60;;;22.00;67.00;;;;;;20733269;28;81011;-69
2021/07/25 23:45:00;;;;;;;;;;;21.90;66.80;;;;;;20741970;28;80771;-69
2021/07/25 23:55:02;;;;;;;3.63;1.83;;;21.80;67.00;;;;;;20757990;28;80772;-69
